METAR Data
IDs: Format: Raw Decoded Include TAF

Data at: 0217 UTC 19 Feb 2019

METAR for:KTVY (Tooele Valley Arpt, UT, US)
Text:KTVY 190215Z AUTO 00000KT 10SM SCT028 BKN033 OVC055 M02/M05 A3000 RMK AO2
Temperature: -2.0°C ( 28°F)
Dewpoint: -5.0°C ( 23°F) [RH = 80%]
Pressure (altimeter):30.00 inches Hg (1016.0 mb)
Winds:calm
Visibility:10 or more sm (16+ km)
Ceiling:3300 feet AGL
Clouds: scattered clouds at 2800 feet AGL, broken clouds at 3300 feet AGL, overcast cloud deck at 5500 feet AGL
QC Flag:automated observation with no human augmentation
Text:KTVY 190155Z AUTO 00000KT 10SM SCT010 BKN027 OVC055 M02/M05 A2999 RMK AO2
Temperature: -2.0°C ( 28°F)
Dewpoint: -5.0°C ( 23°F) [RH = 80%]
Pressure (altimeter):29.99 inches Hg (1015.7 mb)
Winds:calm
Visibility:10 or more sm (16+ km)
Ceiling:2700 feet AGL
Clouds: scattered clouds at 1000 feet AGL, broken clouds at 2700 feet AGL, overcast cloud deck at 5500 feet AGL
QC Flag:automated observation with no human augmentation
Text:KTVY 190135Z AUTO 36005KT 3SM -SN SCT010 BKN016 OVC038 M02/M05 A2999 RMK AO2
Temperature: -2.0°C ( 28°F)
Dewpoint: -5.0°C ( 23°F) [RH = 80%]
Pressure (altimeter):29.99 inches Hg (1015.7 mb)
Winds:from the N (360 degrees) at 6 MPH (5 knots; 2.6 m/s)
Visibility: 3 sm ( 5 km)
Ceiling:1600 feet AGL
Clouds: scattered clouds at 1000 feet AGL, broken clouds at 1600 feet AGL, overcast cloud deck at 3800 feet AGL
Weather:-SN (light snow)
QC Flag:automated observation with no human augmentation
Text:KTVY 190115Z AUTO 34006KT 10SM SCT034 OVC041 M02/M05 A2998 RMK AO2
Temperature: -2.0°C ( 28°F)
Dewpoint: -5.0°C ( 23°F) [RH = 80%]
Pressure (altimeter):29.98 inches Hg (1015.3 mb)
Winds:from the NNW (340 degrees) at 7 MPH (6 knots; 3.1 m/s)
Visibility:10 or more sm (16+ km)
Ceiling:4100 feet AGL
Clouds: scattered clouds at 3400 feet AGL, overcast cloud deck at 4100 feet AGL
QC Flag:automated observation with no human augmentation
Text:KTVY 190055Z AUTO 28008KT 10SM BKN032 OVC039 M02/M05 A2998 RMK AO2
Temperature: -2.0°C ( 28°F)
Dewpoint: -5.0°C ( 23°F) [RH = 80%]
Pressure (altimeter):29.98 inches Hg (1015.3 mb)
Winds:from the W (280 degrees) at 9 MPH (8 knots; 4.1 m/s)
Visibility:10 or more sm (16+ km)
Ceiling:3200 feet AGL
Clouds: broken clouds at 3200 feet AGL, overcast cloud deck at 3900 feet AGL
QC Flag:automated observation with no human augmentation
Text:KTVY 190035Z AUTO 28005KT 10SM OVC030 M01/M05 A2998 RMK AO2
Temperature: -1.0°C ( 30°F)
Dewpoint: -5.0°C ( 23°F) [RH = 74%]
Pressure (altimeter):29.98 inches Hg (1015.3 mb)
Winds:from the W (280 degrees) at 6 MPH (5 knots; 2.6 m/s)
Visibility:10 or more sm (16+ km)
Ceiling:3000 feet AGL
Clouds: overcast cloud deck at 3000 feet AGL
QC Flag:automated observation with no human augmentation
Text:KTVY 190015Z AUTO 00000KT 10SM SCT028 BKN035 OVC048 M02/M04 A2997 RMK AO2
Temperature: -2.0°C ( 28°F)
Dewpoint: -4.0°C ( 25°F) [RH = 86%]
Pressure (altimeter):29.97 inches Hg (1015.0 mb)
Winds:calm
Visibility:10 or more sm (16+ km)
Ceiling:3500 feet AGL
Clouds: scattered clouds at 2800 feet AGL, broken clouds at 3500 feet AGL, overcast cloud deck at 4800 feet AGL
QC Flag:automated observation with no human augmentation
Text:KTVY 182355Z AUTO 07004KT 7SM SCT007 BKN027 OVC050 M02/M03 A2997 RMK AO2
Temperature: -2.0°C ( 28°F)
Dewpoint: -3.0°C ( 27°F) [RH = 93%]
Pressure (altimeter):29.97 inches Hg (1015.0 mb)
Winds:from the ENE (70 degrees) at 5 MPH (4 knots; 2.1 m/s)
Visibility: 7 sm ( 11 km)
Ceiling:2700 feet AGL
Clouds: scattered clouds at 700 feet AGL, broken clouds at 2700 feet AGL, overcast cloud deck at 5000 feet AGL
QC Flag:automated observation with no human augmentation
Text:KTVY 182335Z AUTO 36003KT 1SM -SN BKN005 OVC008 M02/M03 A2997 RMK AO2
Temperature: -2.0°C ( 28°F)
Dewpoint: -3.0°C ( 27°F) [RH = 93%]
Pressure (altimeter):29.97 inches Hg (1015.0 mb)
Winds:from the N (360 degrees) at 3 MPH (3 knots; 1.5 m/s)
Visibility: 1.00 sm ( 1.61 km)
Ceiling:500 feet AGL
Clouds: broken clouds at 500 feet AGL, overcast cloud deck at 800 feet AGL
Weather:-SN (light snow)
QC Flag:automated observation with no human augmentation
Text:KTVY 182315Z AUTO 00000KT 1SM -SN BKN008 OVC018 M02/M04 A2997 RMK AO2
Temperature: -2.0°C ( 28°F)
Dewpoint: -4.0°C ( 25°F) [RH = 86%]
Pressure (altimeter):29.97 inches Hg (1015.0 mb)
Winds:calm
Visibility: 1.00 sm ( 1.61 km)
Ceiling:800 feet AGL
Clouds: broken clouds at 800 feet AGL, overcast cloud deck at 1800 feet AGL
Weather:-SN (light snow)
QC Flag:automated observation with no human augmentation
Text:KTVY 182255Z AUTO 02006KT 4SM -SN BKN021 BKN027 OVC032 M01/M05 A2997 RMK AO2
Temperature: -1.0°C ( 30°F)
Dewpoint: -5.0°C ( 23°F) [RH = 74%]
Pressure (altimeter):29.97 inches Hg (1015.0 mb)
Winds:from the NNE (20 degrees) at 7 MPH (6 knots; 3.1 m/s)
Visibility: 4 sm ( 6 km)
Ceiling:2100 feet AGL
Clouds: broken clouds at 2100 feet AGL, broken clouds at 2700 feet AGL, overcast cloud deck at 3200 feet AGL
Weather:-SN (light snow)
QC Flag:automated observation with no human augmentation
Text:KTVY 182235Z AUTO 36004KT 10SM OVC030 M01/M06 A2997 RMK AO2
Temperature: -1.0°C ( 30°F)
Dewpoint: -6.0°C ( 21°F) [RH = 69%]
Pressure (altimeter):29.97 inches Hg (1015.0 mb)
Winds:from the N (360 degrees) at 5 MPH (4 knots; 2.1 m/s)
Visibility:10 or more sm (16+ km)
Ceiling:3000 feet AGL
Clouds: overcast cloud deck at 3000 feet AGL
QC Flag:automated observation with no human augmentation
Text:KTVY 182215Z AUTO 01004KT 10SM OVC028 M01/M06 A2997 RMK AO2
Temperature: -1.0°C ( 30°F)
Dewpoint: -6.0°C ( 21°F) [RH = 69%]
Pressure (altimeter):29.97 inches Hg (1015.0 mb)
Winds:from the N (10 degrees) at 5 MPH (4 knots; 2.1 m/s)
Visibility:10 or more sm (16+ km)
Ceiling:2800 feet AGL
Clouds: overcast cloud deck at 2800 feet AGL
QC Flag:automated observation with no human augmentation
Text:KTVY 182155Z AUTO 00000KT 10SM OVC030 00/M07 A2997 RMK AO2
Temperature: 0.0°C ( 32°F)
Dewpoint: -7.0°C ( 19°F) [RH = 59%]
Pressure (altimeter):29.97 inches Hg (1015.0 mb)
Winds:calm
Visibility:10 or more sm (16+ km)
Ceiling:3000 feet AGL
Clouds: overcast cloud deck at 3000 feet AGL
QC Flag:automated observation with no human augmentation
Text:KTVY 182135Z AUTO 00000KT 10SM OVC030 M01/M06 A2997 RMK AO2
Temperature: -1.0°C ( 30°F)
Dewpoint: -6.0°C ( 21°F) [RH = 69%]
Pressure (altimeter):29.97 inches Hg (1015.0 mb)
Winds:calm
Visibility:10 or more sm (16+ km)
Ceiling:3000 feet AGL
Clouds: overcast cloud deck at 3000 feet AGL
QC Flag:automated observation with no human augmentation